Time;durP1;ratioP1;P1;durP2;ratioP2;P2;SDS_P1;SDS_P2;PMS_P1;PMS_P2;Temp;Humidity;BMP_temperature;BMP_pressure;BME280_temperature;BME280_humidity;BME280_pressure;Samples;Min_cycle;Max_cycle;Signal;HPM_P1;HPM_P2
2022/10/29 00:01:15;;;;;;;15.67;4.30;;;17.30;99.90;;;;;;4930850;29;20195;-73
2022/10/29 00:03:40;;;;;;;8.63;5.07;;;17.30;99.90;;;;;;4932638;29;20206;-71
2022/10/29 00:06:09;;;;;;;9.30;4.27;;;17.30;99.90;;;;;;4938571;29;20224;-70
2022/10/29 00:08:37;;;;;;;13.33;4.57;;;17.30;99.90;;;;;;4936552;29;20275;-71
2022/10/29 00:11:17;;;;;;;10.63;4.30;;;17.20;99.90;;;;;;4937942;29;20206;-71
2022/10/29 00:13:43;;;;;;;11.40;3.93;;;17.20;99.90;;;;;;4938131;29;20246;-71
2022/10/29 00:16:12;;;;;;;7.30;4.17;;;17.20;99.90;;;;;;4936195;29;20301;-71
2022/10/29 00:18:38;;;;;;;10.40;4.10;;;17.10;99.90;;;;;;4930549;29;20703;-72
2022/10/29 00:21:06;;;;;;;8.00;4.23;;;17.10;99.90;;;;;;4928720;29;20251;-72
2022/10/29 00:23:32;;;;;;;7.23;4.10;;;17.00;99.90;;;;;;4928457;29;20246;-72
2022/10/29 00:25:59;;;;;;;11.20;4.43;;;17.00;99.90;;;;;;4926752;29;20651;-72
2022/10/29 00:28:25;;;;;;;11.63;4.47;;;17.00;99.90;;;;;;4929027;29;20210;-72
2022/10/29 00:30:51;;;;;;;5.87;4.30;;;17.00;99.90;;;;;;4929354;29;20423;-73
2022/10/29 00:33:17;;;;;;;7.07;3.73;;;17.00;99.90;;;;;;4928576;29;20934;-72
2022/10/29 00:35:53;;;;;;;14.70;4.87;;;17.00;99.90;;;;;;4929014;29;20489;-73
2022/10/29 00:38:18;;;;;;;12.20;4.97;;;17.00;99.90;;;;;;4924147;29;20628;-73
2022/10/29 00:40:44;;;;;;;13.03;5.60;;;16.90;99.90;;;;;;4928426;29;20242;-72
2022/10/29 00:43:14;;;;;;;11.47;4.87;;;16.90;99.90;;;;;;4935046;29;20348;-72
2022/10/29 00:46:07;;;;;;;13.20;4.13;;;16.90;99.90;;;;;;4938113;29;20270;-74
2022/10/29 00:48:39;;;;;;;9.03;4.50;;;16.90;99.90;;;;;;4935993;28;20309;-72
2022/10/29 00:51:08;;;;;;;13.40;5.40;;;16.90;99.90;;;;;;4938167;29;20234;-72
2022/10/29 00:53:38;;;;;;;7.80;4.03;;;16.80;99.90;;;;;;4938146;28;20215;-73
2022/10/29 00:56:04;;;;;;;14.00;5.50;;;16.80;99.90;;;;;;4937705;29;20301;-69
2022/10/29 00:58:30;;;;;;;11.23;5.07;;;16.80;99.90;;;;;;4935756;29;20301;-72
2022/10/29 01:00:55;;;;;;;10.47;4.93;;;16.70;99.90;;;;;;4937784;29;20290;-70
2022/10/29 01:03:21;;;;;;;10.63;4.93;;;16.70;99.90;;;;;;4928686;29;20895;-72
2022/10/29 01:05:48;;;;;;;12.40;4.90;;;16.70;99.90;;;;;;4937397;28;20266;-71
2022/10/29 01:08:14;;;;;;;10.27;4.57;;;16.70;99.90;;;;;;4938331;29;20202;-70
2022/10/29 01:10:47;;;;;;;6.10;4.83;;;16.60;99.90;;;;;;4939601;29;20206;-68
2022/10/29 01:13:36;;;;;;;10.40;5.10;;;16.60;99.90;;;;;;4928684;29;20238;-71
2022/10/29 01:16:27;;;;;;;12.83;4.30;;;16.60;99.90;;;;;;4927230;29;20225;-71
2022/10/29 01:19:25;;;;;;;11.77;4.77;;;16.60;99.90;;;;;;4930818;29;20198;-72
2022/10/29 01:22:22;;;;;;;11.67;5.17;;;16.60;99.90;;;;;;4928578;29;20203;-71
2022/10/29 01:25:04;;;;;;;13.87;5.20;;;16.60;99.90;;;;;;4917262;29;20230;-75
2022/10/29 01:27:38;;;;;;;13.37;5.87;;;16.50;99.90;;;;;;4923527;29;20277;-73
2022/10/29 01:30:36;;;;;;;11.00;4.87;;;16.50;99.90;;;;;;4929277;29;20210;-73
2022/10/29 01:33:30;;;;;;;8.63;5.10;;;16.50;99.90;;;;;;4935207;29;20811;-71
2022/10/29 01:36:10;;;;;;;9.00;4.70;;;16.50;99.90;;;;;;4937357;29;20222;-77
2022/10/29 01:38:41;;;;;;;14.33;5.10;;;16.50;99.90;;;;;;4922717;29;20199;-74
2022/10/29 01:41:29;;;;;;;13.30;4.63;;;16.50;99.90;;;;;;4931410;29;20306;-75
2022/10/29 01:44:03;;;;;;;6.53;5.10;;;16.40;99.90;;;;;;4940768;29;20198;-72
2022/10/29 01:46:41;;;;;;;13.07;4.60;;;16.40;99.90;;;;;;4940271;29;20229;-74
2022/10/29 01:49:12;;;;;;;11.20;5.20;;;16.30;99.90;;;;;;4927911;29;20218;-75
2022/10/29 01:51:39;;;;;;;11.97;4.80;;;16.40;99.90;;;;;;4931554;29;22785;-76
2022/10/29 01:54:08;;;;;;;13.83;5.47;;;16.30;99.90;;;;;;4930672;29;20621;-73
2022/10/29 01:56:34;;;;;;;13.27;5.03;;;16.30;99.90;;;;;;4927560;29;20203;-76
2022/10/29 01:59:03;;;;;;;14.97;6.10;;;16.30;99.90;;;;;;4930728;29;20202;-75
2022/10/29 02:01:54;;;;;;;9.93;5.73;;;16.30;99.90;;;;;;4930261;29;20204;-74
2022/10/29 02:04:38;;;;;;;9.50;5.13;;;16.20;99.90;;;;;;4928675;29;20254;-76
2022/10/29 02:07:32;;;;;;;7.57;5.60;;;16.20;99.90;;;;;;4927271;29;20213;-76
2022/10/29 02:10:17;;;;;;;14.13;6.10;;;16.20;99.90;;;;;;4919052;29;20215;-75
2022/10/29 02:12:48;;;;;;;12.93;5.60;;;16.20;99.90;;;;;;4935404;29;20202;-76
2022/10/29 02:15:35;;;;;;;8.60;5.27;;;16.20;99.90;;;;;;4924722;29;20250;-76
2022/10/29 02:18:04;;;;;;;15.77;5.53;;;16.10;99.90;;;;;;4928087;29;20273;-77
2022/10/29 02:20:29;;;;;;;13.37;5.27;;;16.10;99.90;;;;;;4923977;29;20190;-75
2022/10/29 02:22:55;;;;;;;12.10;5.83;;;16.10;99.90;;;;;;4929135;29;20205;-76
2022/10/29 02:25:21;;;;;;;10.83;5.53;;;16.10;99.90;;;;;;4929279;29;20191;-75
2022/10/29 02:27:46;;;;;;;9.33;5.23;;;16.10;99.90;;;;;;4929312;29;20278;-74
2022/10/29 02:30:12;;;;;;;12.40;5.20;;;16.10;99.90;;;;;;4932296;29;20206;-73
2022/10/29 02:32:37;;;;;;;15.73;5.93;;;16.00;99.90;;;;;;4932559;29;20713;-74
2022/10/29 02:35:03;;;;;;;8.50;5.17;;;16.00;99.90;;;;;;4930974;29;20636;-75
2022/10/29 02:37:29;;;;;;;11.13;5.77;;;16.00;99.90;;;;;;4913069;29;20748;-77
2022/10/29 02:39:55;;;;;;;12.53;5.00;;;16.00;99.90;;;;;;4934378;29;20277;-75
2022/10/29 02:42:20;;;;;;;13.20;6.30;;;16.00;99.90;;;;;;4936797;29;20194;-76
2022/10/29 02:44:46;;;;;;;15.00;4.83;;;16.00;99.90;;;;;;4930927;29;20210;-76
2022/10/29 02:47:11;;;;;;;13.67;7.10;;;16.00;99.90;;;;;;4936762;29;20222;-77
2022/10/29 02:49:37;;;;;;;9.23;5.27;;;16.00;99.90;;;;;;4936590;29;20561;-77
2022/10/29 02:52:02;;;;;;;11.33;5.33;;;15.90;99.90;;;;;;4929011;29;20306;-77
2022/10/29 02:54:28;;;;;;;8.90;5.30;;;15.90;99.90;;;;;;4928368;28;20217;-76
2022/10/29 02:56:53;;;;;;;17.20;6.10;;;15.90;99.90;;;;;;4928412;29;20666;-75
2022/10/29 02:59:19;;;;;;;12.13;5.80;;;15.90;99.90;;;;;;4926845;29;20575;-76
2022/10/29 03:01:44;;;;;;;12.80;5.77;;;15.90;99.90;;;;;;4929448;29;20208;-75
2022/10/29 03:04:10;;;;;;;11.10;4.77;;;15.90;99.90;;;;;;4928466;29;20198;-76
2022/10/29 03:06:36;;;;;;;11.00;6.43;;;15.80;99.90;;;;;;4929514;29;20210;-76
2022/10/29 03:09:02;;;;;;;11.27;5.73;;;15.80;99.90;;;;;;4929485;29;20198;-75
2022/10/29 03:11:28;;;;;;;18.60;6.40;;;15.80;99.90;;;;;;4932805;29;20202;-76
2022/10/29 03:13:54;;;;;;;17.33;7.00;;;15.80;99.90;;;;;;4938664;29;20209;-76
2022/10/29 03:16:19;;;;;;;8.30;5.40;;;15.80;99.90;;;;;;4938518;29;20689;-75
2022/10/29 03:18:45;;;;;;;10.07;6.80;;;15.80;99.90;;;;;;4938497;29;20205;-75
2022/10/29 03:21:10;;;;;;;9.80;6.20;;;15.80;99.90;;;;;;4938435;29;20230;-74
2022/10/29 03:23:35;;;;;;;12.90;6.07;;;15.70;99.90;;;;;;4938995;29;20266;-74
2022/10/29 03:26:01;;;;;;;11.13;5.73;;;15.70;99.90;;;;;;4937453;29;20603;-81
2022/10/29 03:28:27;;;;;;;16.53;7.07;;;15.70;99.90;;;;;;4928963;28;20202;-73
2022/10/29 03:30:52;;;;;;;14.93;6.57;;;15.70;99.90;;;;;;4933944;29;20241;-73
2022/10/29 03:33:18;;;;;;;17.47;7.77;;;15.70;99.90;;;;;;4938267;29;20260;-74
2022/10/29 03:35:44;;;;;;;10.93;6.47;;;15.70;99.90;;;;;;4935937;29;20442;-73
2022/10/29 03:38:09;;;;;;;12.17;6.13;;;15.70;99.90;;;;;;4927642;29;20312;-75
2022/10/29 03:40:35;;;;;;;13.43;7.13;;;15.70;99.90;;;;;;4928123;29;20558;-77
2022/10/29 03:43:03;;;;;;;14.40;6.80;;;15.60;99.90;;;;;;4926738;29;20300;-76
2022/10/29 03:45:28;;;;;;;7.67;6.00;;;15.60;99.90;;;;;;4922289;29;20323;-71
2022/10/29 03:47:55;;;;;;;14.43;6.23;;;15.60;99.90;;;;;;4928980;29;20296;-71
2022/10/29 03:50:21;;;;;;;11.73;5.97;;;15.60;99.90;;;;;;4937253;29;20276;-69
2022/10/29 03:52:47;;;;;;;15.27;7.07;;;15.60;99.90;;;;;;4929978;29;20250;-70
2022/10/29 03:55:14;;;;;;;13.07;6.10;;;15.60;99.90;;;;;;4919803;29;20206;-70
2022/10/29 03:57:40;;;;;;;11.07;7.83;;;15.60;99.90;;;;;;4920156;29;20234;-70
2022/10/29 04:00:06;;;;;;;9.97;6.33;;;15.50;99.90;;;;;;4921738;29;20191;-69
2022/10/29 04:02:32;;;;;;;13.00;6.33;;;15.50;99.90;;;;;;4920273;29;20772;-69
2022/10/29 04:04:57;;;;;;;11.20;6.40;;;15.50;99.90;;;;;;4924322;29;20870;-70
2022/10/29 04:07:23;;;;;;;10.40;5.97;;;15.50;99.90;;;;;;4927809;29;20229;-70
2022/10/29 04:09:48;;;;;;;10.50;6.87;;;15.50;99.90;;;;;;4938188;29;20615;-70
2022/10/29 04:12:14;;;;;;;10.17;6.60;;;15.50;99.90;;;;;;4933656;29;20198;-71
2022/10/29 04:14:41;;;;;;;9.90;6.67;;;15.50;99.90;;;;;;4937865;29;20214;-71
2022/10/29 04:17:09;;;;;;;8.47;5.87;;;15.50;99.90;;;;;;4936659;29;20571;-71
2022/10/29 04:19:35;;;;;;;15.33;6.53;;;15.50;99.90;;;;;;4931228;29;20210;-69
2022/10/29 04:22:00;;;;;;;9.03;6.37;;;15.50;99.90;;;;;;4922954;29;20265;-73
2022/10/29 04:24:25;;;;;;;13.50;6.43;;;15.50;99.90;;;;;;4935923;29;20202;-71
2022/10/29 04:26:51;;;;;;;11.37;6.27;;;15.60;99.90;;;;;;4923144;29;20523;-70
2022/10/29 04:29:16;;;;;;;9.57;6.30;;;15.60;99.90;;;;;;4922458;29;20346;-71
2022/10/29 04:31:42;;;;;;;12.83;7.33;;;15.60;99.90;;;;;;4924055;29;20199;-70
2022/10/29 04:34:07;;;;;;;18.87;7.07;;;15.60;99.90;;;;;;4922409;29;20210;-71
2022/10/29 04:36:33;;;;;;;19.53;7.90;;;15.60;99.90;;;;;;4924753;29;20674;-73
2022/10/29 04:38:58;;;;;;;10.73;6.93;;;15.60;99.90;;;;;;4925653;29;20199;-71
2022/10/29 04:41:24;;;;;;;9.40;6.20;;;15.60;99.90;;;;;;4926437;29;20256;-70
2022/10/29 04:43:49;;;;;;;10.90;6.87;;;15.60;99.90;;;;;;4927779;29;20658;-69
2022/10/29 04:46:15;;;;;;;10.60;6.57;;;15.60;99.90;;;;;;4927018;29;20274;-69
2022/10/29 04:48:40;;;;;;;13.57;7.37;;;15.60;99.90;;;;;;4935314;29;20231;-69
2022/10/29 04:51:06;;;;;;;9.67;6.10;;;15.50;99.90;;;;;;4932367;29;20563;-69
2022/10/29 04:53:31;;;;;;;13.57;6.10;;;15.50;99.90;;;;;;4931917;28;20234;-69
2022/10/29 04:56:02;;;;;;;9.13;6.60;;;15.50;99.90;;;;;;4933707;29;20825;-70
2022/10/29 04:58:28;;;;;;;9.60;6.13;;;15.50;99.90;;;;;;4932770;29;20223;-70
2022/10/29 05:00:59;;;;;;;11.90;6.70;;;15.50;99.90;;;;;;4931116;29;20230;-70
2022/10/29 05:03:24;;;;;;;12.00;6.77;;;15.50;99.90;;;;;;4930332;29;21503;-71
2022/10/29 05:05:50;;;;;;;13.30;7.47;;;15.50;99.90;;;;;;4931339;29;20313;-71
2022/10/29 05:08:16;;;;;;;9.03;5.93;;;15.50;99.90;;;;;;4935964;29;20999;-71
2022/10/29 05:10:42;;;;;;;11.10;6.73;;;15.50;99.90;;;;;;4927393;29;20199;-70
2022/10/29 05:13:11;;;;;;;12.87;6.83;;;15.40;99.90;;;;;;4923416;29;20266;-71
2022/10/29 05:15:37;;;;;;;15.50;6.70;;;15.50;99.90;;;;;;4936579;29;20219;-70
2022/10/29 05:18:02;;;;;;;19.30;7.30;;;15.40;99.90;;;;;;4932227;29;20690;-70
2022/10/29 05:20:29;;;;;;;11.93;6.37;;;15.40;99.90;;;;;;4931508;29;20225;-71
2022/10/29 05:23:05;;;;;;;11.10;6.33;;;15.40;99.90;;;;;;4936655;29;20214;-70
2022/10/29 05:25:32;;;;;;;12.50;6.97;;;15.40;99.90;;;;;;4936506;29;20237;-70
2022/10/29 05:28:13;;;;;;;11.43;6.43;;;15.40;99.90;;;;;;4936942;29;20567;-71
2022/10/29 05:30:40;;;;;;;17.37;7.13;;;15.40;99.90;;;;;;4940955;29;20217;-70
2022/10/29 05:33:10;;;;;;;13.03;7.53;;;15.40;99.90;;;;;;4940645;29;20207;-70
2022/10/29 05:35:36;;;;;;;16.17;7.30;;;15.30;99.90;;;;;;4940532;29;20316;-71
2022/10/29 05:38:02;;;;;;;14.80;7.33;;;15.30;99.90;;;;;;4938055;29;20322;-70
2022/10/29 05:40:28;;;;;;;13.57;7.03;;;15.30;99.90;;;;;;4939546;29;20297;-71
2022/10/29 05:42:54;;;;;;;12.30;7.07;;;15.30;99.90;;;;;;4935942;29;21018;-70
2022/10/29 05:45:20;;;;;;;13.37;6.70;;;15.30;99.90;;;;;;4940548;29;20206;-71
2022/10/29 05:47:45;;;;;;;15.87;7.37;;;15.30;99.90;;;;;;4937270;29;20258;-71
2022/10/29 05:50:12;;;;;;;14.47;7.73;;;15.30;99.90;;;;;;4925455;29;20974;-71
2022/10/29 05:52:38;;;;;;;15.80;7.10;;;15.30;99.90;;;;;;4936865;28;20206;-71
2022/10/29 05:55:04;;;;;;;14.37;7.80;;;15.30;99.90;;;;;;4940470;29;20261;-71
2022/10/29 05:57:30;;;;;;;15.07;8.10;;;15.30;99.90;;;;;;4939779;29;20970;-71
2022/10/29 05:59:55;;;;;;;15.33;7.80;;;15.30;99.90;;;;;;4940623;29;20226;-72
2022/10/29 06:02:21;;;;;;;11.00;7.17;;;15.30;99.90;;;;;;4938197;29;20559;-72
2022/10/29 06:04:46;;;;;;;20.33;7.73;;;15.20;99.90;;;;;;4927826;29;20206;-72
2022/10/29 06:07:12;;;;;;;11.70;6.80;;;15.20;99.90;;;;;;4930786;29;20293;-71
2022/10/29 06:09:37;;;;;;;17.20;8.00;;;15.20;99.90;;;;;;4932629;29;20209;-71
2022/10/29 06:12:03;;;;;;;19.20;7.77;;;15.20;99.90;;;;;;4929606;29;20202;-72
2022/10/29 06:14:29;;;;;;;12.40;6.80;;;15.10;99.90;;;;;;4930606;29;20739;-71
2022/10/29 06:16:54;;;;;;;12.00;6.80;;;15.10;99.90;;;;;;4928490;29;20210;-71
2022/10/29 06:19:20;;;;;;;13.93;6.87;;;15.10;99.90;;;;;;4930082;29;20206;-72
2022/10/29 06:21:45;;;;;;;17.10;7.33;;;15.10;99.90;;;;;;4930017;29;20237;-70
2022/10/29 06:24:12;;;;;;;9.70;6.67;;;15.10;99.90;;;;;;4932731;29;20546;-68
2022/10/29 06:26:38;;;;;;;10.00;6.43;;;15.10;99.90;;;;;;4927086;29;20234;-69
2022/10/29 06:29:03;;;;;;;16.10;7.37;;;15.10;99.90;;;;;;4928181;29;20219;-71
2022/10/29 06:31:28;;;;;;;11.23;7.10;;;15.10;99.90;;;;;;4930478;29;20239;-72
2022/10/29 06:33:55;;;;;;;14.17;6.93;;;15.10;99.90;;;;;;4930529;29;20214;-71
2022/10/29 06:36:20;;;;;;;15.13;6.77;;;15.10;99.90;;;;;;4930662;29;20230;-72
2022/10/29 06:38:46;;;;;;;14.73;7.00;;;15.10;99.90;;;;;;4930289;29;20228;-71
2022/10/29 06:41:12;;;;;;;14.30;7.40;;;15.20;99.90;;;;;;4930004;29;20196;-71
2022/10/29 06:43:37;;;;;;;14.07;7.23;;;15.20;99.90;;;;;;4929631;29;20601;-72
2022/10/29 06:46:03;;;;;;;10.40;6.43;;;15.20;99.90;;;;;;4928933;29;20281;-72
2022/10/29 06:48:28;;;;;;;16.03;6.40;;;15.20;99.90;;;;;;4929472;29;20269;-71
2022/10/29 06:50:54;;;;;;;12.40;7.10;;;15.20;99.90;;;;;;4928906;29;20266;-72
2022/10/29 06:53:19;;;;;;;11.07;7.17;;;15.30;99.90;;;;;;4929019;28;20215;-75
2022/10/29 06:55:45;;;;;;;12.67;6.57;;;15.30;99.90;;;;;;4934637;29;20221;-71
2022/10/29 06:58:13;;;;;;;13.90;6.60;;;15.30;99.90;;;;;;4928263;29;20206;-71
2022/10/29 07:00:40;;;;;;;11.17;6.43;;;15.30;99.90;;;;;;4924706;29;20262;-73
2022/10/29 07:03:06;;;;;;;12.07;6.97;;;15.30;99.90;;;;;;4926594;29;20207;-72
2022/10/29 07:05:32;;;;;;;12.17;7.07;;;15.40;99.90;;;;;;4929701;29;20202;-71
2022/10/29 07:07:59;;;;;;;10.57;6.83;;;15.40;99.90;;;;;;4928310;29;20229;-70
2022/10/29 07:10:28;;;;;;;16.40;7.17;;;15.50;99.90;;;;;;4924782;29;20687;-71
2022/10/29 07:12:54;;;;;;;12.23;6.57;;;15.40;99.90;;;;;;4930201;29;20237;-74
2022/10/29 07:15:20;;;;;;;16.03;7.70;;;15.50;99.90;;;;;;4933000;29;20250;-66
2022/10/29 07:17:59;;;;;;;9.27;5.60;;;15.60;99.90;;;;;;4926991;29;20259;-68
2022/10/29 07:20:26;;;;;;;14.30;7.23;;;15.60;99.90;;;;;;4922063;29;20218;-65
2022/10/29 07:22:52;;;;;;;10.37;6.37;;;15.60;99.90;;;;;;4922020;29;20198;-66
2022/10/29 07:25:18;;;;;;;12.60;7.00;;;15.70;99.90;;;;;;4922306;29;20194;-65
2022/10/29 07:27:43;;;;;;;13.00;9.77;;;15.80;99.90;;;;;;4921317;29;20910;-66
2022/10/29 07:30:09;;;;;;;11.07;6.83;;;15.80;99.90;;;;;;4924703;29;20740;-66
2022/10/29 07:32:35;;;;;;;7.97;6.37;;;15.80;99.90;;;;;;4923995;29;20198;-66
2022/10/29 07:35:00;;;;;;;12.93;7.17;;;15.90;99.90;;;;;;4924654;29;20214;-66
2022/10/29 07:37:26;;;;;;;12.43;8.10;;;15.90;99.90;;;;;;4938013;29;20215;-67
2022/10/29 07:39:51;;;;;;;13.47;6.73;;;15.90;99.90;;;;;;4938149;29;20214;-75
2022/10/29 07:42:17;;;;;;;9.57;6.73;;;15.90;99.90;;;;;;4936688;29;20716;-73
2022/10/29 07:44:43;;;;;;;7.57;5.83;;;16.00;99.90;;;;;;4937979;29;20202;-74
2022/10/29 07:47:08;;;;;;;11.63;6.50;;;16.00;99.90;;;;;;4938274;29;20229;-67
2022/10/29 07:49:34;;;;;;;15.27;6.33;;;16.10;99.90;;;;;;4937925;29;20198;-67
2022/10/29 07:51:59;;;;;;;13.63;7.17;;;16.10;99.90;;;;;;4938220;29;20244;-68
2022/10/29 07:54:25;;;;;;;10.40;6.77;;;16.20;99.90;;;;;;4936077;28;20688;-67
2022/10/29 07:56:52;;;;;;;11.87;6.07;;;16.20;99.90;;;;;;4934973;29;20240;-67
2022/10/29 07:59:18;;;;;;;17.87;6.20;;;16.30;99.90;;;;;;4920585;29;20744;-68
2022/10/29 08:01:44;;;;;;;11.63;6.40;;;16.30;99.90;;;;;;4905052;29;20773;-69
2022/10/29 08:04:10;;;;;;;13.30;6.50;;;16.40;99.90;;;;;;4921437;29;20238;-67
2022/10/29 08:06:35;;;;;;;11.63;6.37;;;16.30;99.90;;;;;;4923628;29;20207;-67
2022/10/29 08:09:01;;;;;;;13.07;6.23;;;16.40;99.90;;;;;;4922208;29;20658;-67
2022/10/29 08:11:26;;;;;;;13.93;6.43;;;16.40;99.90;;;;;;4925047;29;20206;-68
2022/10/29 08:13:51;;;;;;;13.20;7.27;;;16.50;99.90;;;;;;4923159;29;20277;-69
2022/10/29 08:16:17;;;;;;;12.57;6.63;;;16.40;99.90;;;;;;4926852;29;20219;-68
2022/10/29 08:18:42;;;;;;;8.90;6.50;;;16.40;99.90;;;;;;4929440;29;20289;-68
2022/10/29 08:21:08;;;;;;;14.60;7.33;;;16.50;99.90;;;;;;4921088;29;20223;-70
2022/10/29 08:23:33;;;;;;;13.27;6.80;;;16.50;99.90;;;;;;4924711;29;20192;-69
2022/10/29 08:25:59;;;;;;;10.50;5.83;;;16.50;99.90;;;;;;4924611;29;20298;-73
2022/10/29 08:28:25;;;;;;;13.67;6.70;;;16.50;99.90;;;;;;4929011;29;20238;-69
2022/10/29 08:30:50;;;;;;;13.23;6.80;;;16.60;99.90;;;;;;4927541;29;20215;-69
2022/10/29 08:33:16;;;;;;;15.30;7.30;;;16.60;99.90;;;;;;4922114;29;20213;-69
2022/10/29 08:35:42;;;;;;;13.63;7.53;;;16.60;99.90;;;;;;4926673;29;20551;-68
2022/10/29 08:38:08;;;;;;;10.63;6.80;;;16.70;99.90;;;;;;4926777;29;20808;-68
2022/10/29 08:41:07;;;;;;;12.73;7.03;;;16.70;99.90;;;;;;4924094;29;20203;-68
2022/10/29 08:44:17;;;;;;;11.47;6.67;;;16.90;99.90;;;;;;4927291;29;20202;-69
2022/10/29 08:46:53;;;;;;;11.33;6.67;;;17.00;99.90;;;;;;4921806;29;20248;-70
2022/10/29 08:49:22;;;;;;;14.27;7.07;;;17.00;99.90;;;;;;4923209;29;20190;-67
2022/10/29 08:52:02;;;;;;;20.63;7.20;;;17.10;99.90;;;;;;4932440;29;20517;-70
2022/10/29 08:54:31;;;;;;;12.43;6.73;;;17.20;99.90;;;;;;4930300;29;20216;-68
2022/10/29 08:57:00;;;;;;;13.97;7.10;;;17.40;99.90;;;;;;4931660;29;20561;-67
2022/10/29 08:59:31;;;;;;;15.60;8.47;;;17.40;99.90;;;;;;4931317;29;20688;-68
2022/10/29 09:01:56;;;;;;;17.23;8.60;;;17.40;99.90;;;;;;4929990;29;20199;-67
2022/10/29 09:04:32;;;;;;;15.73;8.40;;;17.50;99.90;;;;;;4931705;29;20679;-72
2022/10/29 09:07:18;;;;;;;15.67;8.13;;;17.50;99.90;;;;;;4932023;29;20202;-79
2022/10/29 09:09:58;;;;;;;15.57;8.37;;;17.60;99.90;;;;;;4922353;29;20212;-72
2022/10/29 09:12:42;;;;;;;13.60;7.47;;;17.70;99.90;;;;;;4924220;29;20207;-69
2022/10/29 09:15:35;;;;;;;15.97;7.97;;;17.80;99.90;;;;;;4939468;29;20214;-69
2022/10/29 09:18:18;;;;;;;12.23;7.43;;;17.90;99.90;;;;;;4933407;29;20589;-67
2022/10/29 09:21:03;;;;;;;15.37;7.00;;;18.00;99.90;;;;;;4930386;29;20255;-68
2022/10/29 09:23:57;;;;;;;12.03;6.73;;;18.10;99.90;;;;;;4927973;29;20207;-68
2022/10/29 09:26:55;;;;;;;10.60;6.57;;;18.10;99.90;;;;;;4924277;28;20232;-69
2022/10/29 09:29:49;;;;;;;14.03;6.87;;;18.20;99.90;;;;;;4923164;29;20664;-69
2022/10/29 09:32:32;;;;;;;11.33;6.37;;;18.20;99.90;;;;;;4929851;29;20213;-69
2022/10/29 09:35:03;;;;;;;11.10;6.27;;;18.30;99.90;;;;;;4927988;29;20314;-70
2022/10/29 09:37:59;;;;;;;12.03;7.47;;;18.40;99.90;;;;;;4940183;29;20187;-69
2022/10/29 09:40:38;;;;;;;17.80;7.03;;;18.50;99.90;;;;;;4924645;29;20995;-69
2022/10/29 09:43:47;;;;;;;12.80;6.03;;;18.60;99.90;;;;;;4940982;29;20251;-69
2022/10/29 09:46:28;;;;;;;13.67;7.30;;;18.60;99.90;;;;;;4940137;29;20221;-69
2022/10/29 09:49:06;;;;;;;9.57;5.83;;;18.60;99.90;;;;;;4939787;29;20284;-69
2022/10/29 09:51:59;;;;;;;10.33;6.97;;;18.70;99.90;;;;;;4940323;29;20210;-68
2022/10/29 09:54:28;;;;;;;10.93;6.43;;;18.70;99.90;;;;;;4940504;28;20206;-69
2022/10/29 09:56:54;;;;;;;12.30;6.07;;;18.80;99.90;;;;;;4940666;29;20226;-68
2022/10/29 09:59:35;;;;;;;15.93;6.50;;;18.80;99.90;;;;;;4939930;29;20233;-68
2022/10/29 10:02:01;;;;;;;12.30;6.13;;;18.80;99.90;;;;;;4940025;29;20340;-77
2022/10/29 10:04:31;;;;;;;12.67;6.50;;;18.70;99.90;;;;;;4939537;29;20290;-68
2022/10/29 10:07:06;;;;;;;9.33;5.50;;;18.70;99.90;;;;;;4940483;29;20264;-69
2022/10/29 10:09:49;;;;;;;9.77;5.37;;;18.70;99.90;;;;;;4933961;29;20744;-79
2022/10/29 10:12:15;;;;;;;13.37;6.30;;;18.80;99.90;;;;;;4939935;29;20213;-81
2022/10/29 10:14:40;;;;;;;17.80;6.47;;;18.80;99.90;;;;;;4930685;29;20850;-82
2022/10/29 10:17:06;;;;;;;12.50;6.37;;;18.80;99.90;;;;;;4930935;29;20300;-80
2022/10/29 10:19:32;;;;;;;13.93;6.03;;;18.80;99.90;;;;;;4930184;29;20210;-79
2022/10/29 10:22:00;;;;;;;11.17;6.83;;;18.90;99.90;;;;;;4931272;29;20202;-75
2022/10/29 10:24:36;;;;;;;9.43;5.83;;;19.00;99.90;;;;;;4929134;29;20685;-78
2022/10/29 10:27:28;;;;;;;11.97;5.63;;;19.20;99.90;;;;;;4929403;29;20239;-81
2022/10/29 10:30:02;;;;;;;10.27;5.30;;;19.40;99.90;;;;;;4926005;29;20207;-82
2022/10/29 10:32:28;;;;;;;11.60;5.30;;;19.40;99.90;;;;;;4929248;29;20244;-81
2022/10/29 10:34:53;;;;;;;12.50;5.67;;;19.50;99.90;;;;;;4928695;29;20224;-81
2022/10/29 10:37:19;;;;;;;12.17;5.30;;;19.60;99.90;;;;;;4928833;29;20622;-81
2022/10/29 10:39:59;;;;;;;10.70;5.93;;;19.60;99.90;;;;;;4928363;29;20806;-82
2022/10/29 10:42:28;;;;;;;8.60;5.50;;;19.60;99.90;;;;;;4924720;29;20659;-81
2022/10/29 10:45:00;;;;;;;10.43;6.27;;;19.60;99.90;;;;;;4928351;29;20292;-82
2022/10/29 10:47:29;;;;;;;9.87;6.50;;;19.60;99.90;;;;;;4936846;29;20665;-81
2022/10/29 10:50:21;;;;;;;10.57;6.00;;;19.50;99.90;;;;;;4926840;29;20689;-81
2022/10/29 10:52:48;;;;;;;14.83;6.17;;;19.60;99.90;;;;;;4930342;28;20210;-82
2022/10/29 10:55:27;;;;;;;12.03;6.83;;;19.70;99.90;;;;;;4928549;29;20224;-81
2022/10/29 10:58:18;;;;;;;13.93;7.30;;;19.90;99.90;;;;;;4927534;29;20208;-81
2022/10/29 11:00:54;;;;;;;8.63;5.70;;;19.90;99.90;;;;;;4926789;29;20293;-82
2022/10/29 11:03:28;;;;;;;12.73;7.00;;;19.90;99.90;;;;;;4920121;29;20988;-78
2022/10/29 11:06:00;;;;;;;15.47;6.33;;;20.00;99.90;;;;;;4928634;29;20236;-81
2022/10/29 11:08:35;;;;;;;12.67;6.23;;;20.10;99.90;;;;;;4929136;29;20227;-81
2022/10/29 11:11:11;;;;;;;9.20;6.17;;;20.20;99.90;;;;;;4926345;29;20197;-81
2022/10/29 11:13:39;;;;;;;10.30;5.43;;;20.30;99.90;;;;;;4928985;29;20216;-81
2022/10/29 11:16:30;;;;;;;10.57;6.13;;;20.50;99.90;;;;;;4926115;29;20688;-81
2022/10/29 11:19:21;;;;;;;10.33;6.07;;;20.50;99.90;;;;;;4926273;29;20210;-81
2022/10/29 11:22:10;;;;;;;15.43;6.47;;;20.60;99.90;;;;;;4928576;29;20202;-82
2022/10/29 11:24:59;;;;;;;14.63;6.37;;;20.60;99.90;;;;;;4926609;29;20236;-82
2022/10/29 11:27:48;;;;;;;12.27;6.13;;;20.80;99.90;;;;;;4925380;29;20202;-82
2022/10/29 11:30:16;;;;;;;17.40;7.03;;;20.80;99.90;;;;;;4927574;29;20361;-82
2022/10/29 11:33:17;;;;;;;7.47;5.47;;;20.80;99.90;;;;;;4928888;29;20211;-81
2022/10/29 11:36:08;;;;;;;10.37;4.47;;;20.60;99.90;;;;;;4929852;29;20213;-82
2022/10/29 11:38:42;;;;;;;9.63;5.57;;;20.60;99.90;;;;;;4923003;29;20265;-78
2022/10/29 11:41:33;;;;;;;12.07;5.67;;;20.70;99.90;;;;;;4935819;29;20197;-68
2022/10/29 11:43:58;;;;;;;9.47;5.03;;;20.80;99.90;;;;;;4934424;29;20217;-70
2022/10/29 11:46:33;;;;;;;12.10;6.13;;;21.10;99.90;;;;;;4937612;29;20206;-70
2022/10/29 11:49:25;;;;;;;7.43;5.07;;;21.00;99.90;;;;;;4928333;28;20572;-68
2022/10/29 11:52:07;;;;;;;9.83;4.90;;;20.80;99.90;;;;;;4925362;29;20207;-69
2022/10/29 11:55:01;;;;;;;10.70;4.93;;;20.80;99.90;;;;;;4923129;28;20217;-70
2022/10/29 11:57:42;;;;;;;11.13;5.23;;;20.80;99.90;;;;;;4923650;29;20206;-69
2022/10/29 12:00:16;;;;;;;13.23;5.40;;;20.70;99.90;;;;;;4926138;29;20626;-68
2022/10/29 12:03:17;;;;;;;13.03;5.20;;;20.80;99.90;;;;;;4924225;29;20207;-70
2022/10/29 12:06:13;;;;;;;9.37;5.17;;;20.90;99.90;;;;;;4924597;29;21080;-71
2022/10/29 12:08:52;;;;;;;10.97;5.20;;;21.00;99.90;;;;;;4927659;29;20210;-69
2022/10/29 12:11:23;;;;;;;8.73;5.27;;;21.10;99.90;;;;;;4923472;29;20224;-70
2022/10/29 12:14:14;;;;;;;13.20;5.27;;;21.20;99.90;;;;;;4927617;29;20609;-74
2022/10/29 12:17:08;;;;;;;12.30;5.23;;;21.40;99.90;;;;;;4925978;29;20260;-77
2022/10/29 12:19:59;;;;;;;11.90;5.33;;;21.60;99.90;;;;;;4912275;29;20206;-74
2022/10/29 12:22:31;;;;;;;12.87;5.50;;;21.80;99.90;;;;;;4937315;29;20292;-71
2022/10/29 12:25:27;;;;;;;13.00;5.90;;;22.00;99.90;;;;;;4932894;29;20684;-70
2022/10/29 12:28:07;;;;;;;6.33;4.33;;;22.10;99.90;;;;;;4934097;29;20234;-70
2022/10/29 12:30:53;;;;;;;10.80;4.53;;;22.40;99.90;;;;;;4925538;29;20207;-70
2022/10/29 12:33:36;;;;;;;12.13;5.37;;;22.50;99.90;;;;;;4923637;29;20199;-70
2022/10/29 12:36:34;;;;;;;9.10;4.77;;;22.40;99.90;;;;;;4928260;29;20944;-70
2022/10/29 12:39:01;;;;;;;9.00;5.30;;;22.10;99.90;;;;;;4929311;29;20940;-72
2022/10/29 12:41:37;;;;;;;9.93;4.88;;;22.30;99.90;;;;;;4925714;29;20224;-69
2022/10/29 12:44:24;;;;;;;13.23;5.83;;;22.40;99.90;;;;;;4925362;29;20292;-71
2022/10/29 12:47:00;;;;;;;9.40;4.90;;;22.30;99.90;;;;;;4923009;29;20230;-69
2022/10/29 12:49:45;;;;;;;8.07;4.67;;;22.30;99.90;;;;;;4927426;29;20227;-70
2022/10/29 12:52:27;;;;;;;7.17;5.37;;;22.80;99.90;;;;;;4925508;29;20214;-69
2022/10/29 12:54:54;;;;;;;5.95;5.10;;;23.20;99.90;;;;;;4923633;29;20769;-69
2022/10/29 12:57:29;;;;;;;7.38;4.53;;;23.70;99.90;;;;;;4910111;29;20203;-70
2022/10/29 12:59:55;;;;;;;8.88;4.57;;;24.10;99.90;;;;;;4927946;29;20214;-74
2022/10/29 13:02:28;;;;;;;5.50;4.10;;;24.50;99.90;;;;;;4927957;28;20199;-70